Strumenti personali
Tu sei qui: Portale Dati rete

Dati disponibili

Clicca sulla provincia, potrai visualizzare le stazioni presenti nel suo territorio

Belluno, Padova, Rovigo, Treviso, Venezia, Verona, Vicenza

 

 

Provincia di BellunoProvincia di VicenzaProvincia di TrevisoProvincia di VeneziaProvincia di PadovaProvincia di VeronaProvincia di Rovigo

Dipartimento Regionale per la Sicurezza del Territorio

Servizio Centro Meteorologico di Teolo

Stazione Auronzo
Provincia BELLUNO

Valori giornalieri nel periodo 23/02/2014 - 23/04/2014

La tabella è stata elaborata con i dati trasmessi in automatico dalle centraline, dopo la validazione possono subire parziali modifiche.
Data (gg/mm/aa) Temp. aria
a 2m
(°C)
Pioggia
(mm)
Umidità rel.
a 2m
(%)
Radiazione globale
(MJ/m2)
Vento a 5 m
  med     min     max   tot min max tot Sfilato (km/g) Raffica Direz. preval
ora m/s
23/02/14 -0.5 -4.9 7.0 0.0 52 100 12.840 18.0 23:35 1.7 NO
24/02/14 -0.9 -5.8 9.5 0.0 >> >> 12.734 18.8 11:39 2.2 NO
25/02/14 0.2 -6.3 9.2 0.0 >> >> 13.079 13.4 13:49 2.0 ONO
26/02/14 2.5 0.0 7.4 0.0 >> >> 6.351 17.9 18:29 3.7 SE
27/02/14 2.7 -0.6 7.5 0.4 47 100 8.247 40.0 19:52 5.9 SE
28/02/14 1.9 -0.2 6.1 0.0 48 100 7.562 46.4 13:07 5.3 SE
01/03/14 1.3 0.0 6.6 14.4 51 100 3.684 15.7 12:44 4.0 NO
02/03/14 1.4 -0.2 5.9 6.8 81 100 3.991 11.8 14:38 1.5 ONO
03/03/14 2.1 0.0 5.9 0.4 60 100 9.075 18.4 13:45 3.0 SE
04/03/14 2.4 -0.8 7.9 0.0 44 100 7.933 36.7 13:57 4.4 ONO
05/03/14 1.9 -1.7 9.7 0.0 41 100 8.240 43.1 08:55 2.6 NO
06/03/14 1.9 -2.3 12.2 0.0 30 100 11.052 64.9 16:10 7.7 NO
07/03/14 2.3 -3.8 16.7 0.0 28 100 15.621 15.5 00:01 2.0 NO
08/03/14 2.3 -2.9 13.4 0.0 24 100 15.934 38.2 08:08 3.3 ONO
09/03/14 1.8 -4.4 13.6 0.0 25 100 16.229 11.9 03:10 1.8 O
10/03/14 2.2 -4.1 12.5 0.0 18 100 14.698 49.7 12:20 5.8 ONO
11/03/14 2.2 -3.6 13.0 0.0 29 100 15.859 23.2 10:16 2.4 NO
12/03/14 2.6 -3.7 12.8 0.0 27 100 17.152 20.6 20:47 1.6 NO
13/03/14 3.3 -3.4 16.5 0.0 29 100 16.970 10.2 11:01 1.4 NO
14/03/14 3.2 -2.7 13.0 0.0 35 100 17.240 16.2 08:17 1.7 O
15/03/14 3.5 -2.2 11.4 0.0 44 100 12.828 39.1 14:02 4.1 O
16/03/14 5.1 -1.1 16.8 0.0 25 100 15.301 62.3 14:19 9.1 O
17/03/14 4.8 -1.5 16.4 0.0 19 100 18.319 23.6 13:10 2.5 O
18/03/14 4.3 -2.5 16.8 0.0 29 100 15.326 16.3 09:06 1.7 NO
19/03/14 5.3 -0.4 15.7 0.0 17 100 18.169 57.5 13:08 5.3 ONO
20/03/14 4.7 -2.0 14.9 0.0 32 100 17.679 46.4 12:34 4.2 NO
21/03/14 6.0 -1.1 15.8 0.0 35 100 16.801 69.5 15:22 8.7 NO
22/03/14 4.2 1.0 8.6 4.8 70 100 4.211 29.2 16:08 2.4 ONO
23/03/14 2.0 0.2 3.8 53.4 100 100 2.542 40.0 15:34 3.2 ONO
24/03/14 1.7 -1.7 6.5 13.2 61 100 9.094 19.9 11:54 2.8 S
25/03/14 0.6 -4.5 6.3 0.0 34 100 12.960 44.0 14:05 6.7 NO
26/03/14 2.1 -2.5 7.5 0.0 34 100 14.064 62.0 10:45 5.8 SE
27/03/14 3.8 0.5 9.3 0.0 40 100 9.508 69.3 14:10 6.5 ONO
28/03/14 3.5 -1.9 12.5 0.0 33 100 13.631 32.6 14:29 3.6 NO
29/03/14 4.5 -2.7 15.2 0.0 27 100 20.736 45.7 13:26 4.2 NO
30/03/14 5.4 -2.4 16.5 0.0 24 100 20.296 43.4 12:34 4.4 NO
31/03/14 6.4 -1.3 18.0 0.0 28 100 19.210 42.2 13:30 4.3 ONO
01/04/14 7.5 -0.5 18.6 0.0 29 100 18.658 78.2 14:17 5.8 SE
02/04/14 7.4 3.5 14.2 0.0 49 100 9.483 50.3 11:58 3.1 ONO
03/04/14 6.7 2.4 12.5 0.0 58 100 7.958 41.9 12:24 2.8 ONO
04/04/14 8.4 1.6 17.5 0.0 31 100 15.715 76.0 11:47 5.5 SE
05/04/14 9.1 3.8 18.0 0.0 30 100 12.075 60.3 16:44 3.5 ONO
06/04/14 8.8 2.2 17.8 0.0 33 100 13.493 59.9 13:26 4.5 ONO
07/04/14 8.8 0.1 19.7 0.0 24 100 22.210 65.7 15:01 5.4 ONO
08/04/14 9.1 1.8 18.6 6.8 38 100 15.457 83.0 14:43 6.9 SE
09/04/14 6.3 -0.4 13.6 0.0 15 100 20.936 90.2 11:44 9.5 ONO
10/04/14 7.2 -2.0 17.7 0.0 19 100 24.394 78.3 13:32 7.8 NO
11/04/14 8.6 0.9 16.5 0.0 42 100 17.855 93.2 14:34 6.2 SE
12/04/14 9.1 6.0 14.6 0.2 47 100 12.533 82.1 16:53 6.2 SE
13/04/14 8.1 1.3 17.0 0.0 30 100 12.847 53.9 11:51 4.9 ONO
14/04/14 8.2 -0.5 17.6 0.0 33 100 21.482 113.6 22:01 10.9 SE
15/04/14 4.9 -1.6 10.4 0.0 17 98 21.583 106.1 11:28 10.2 ONO
16/04/14 3.9 -3.6 11.3 0.0 13 87 23.811 114.5 17:27 11.1 NO
17/04/14 5.3 -3.2 16.3 0.0 9 99 25.850 55.6 12:01 6.5 NO
18/04/14 7.0 -2.2 15.7 1.6 16 100 16.945 82.9 17:11 8.5 SE
19/04/14 3.4 0.2 6.9 22.0 97 100 3.489 28.7 14:03 3.3 ONO
20/04/14 6.2 0.6 12.4 1.0 63 100 11.993 67.7 14:34 6.3 SE
21/04/14 7.3 4.8 10.1 0.4 67 100 6.006 21.5 12:45 2.2 ONO
22/04/14 9.5 5.0 17.1 0.0 38 100 17.052 67.3 16:28 5.3 ONO
23/04/14 10.4 1.9 19.7 0.0 29 100 18.985 58.5 15:16 6.1 ONO
Se la casella è vuota il sensore non è attivo.
Se la casella contiene ">>" il valore non è disponibile.
Si segnala che con precipitazione nevosa il pluviometro potrebbe non rilevare o sottostimare il fenomeno.
L'orario indicato nella raffica è solare.
La direzione prevalente del vento è in settori e rappresenta la provenienza del vento, il settore è ampio 22.5 gradi con asse nella direzione indicata.

Oltre alla gestione operativa delle stazioni, che comprende le operazioni di acquisizione, validazione e archiviazione dati, tale settore si occupa della predisposizione di una serie di prodotti e servizi, finalizzati all'utenza esterna, rappresentati dai dati e servizi di tipo standard il cui costo è gia quantificato (listino prodotti tariffati) o prodotti e servizi particolari, legati a specifiche esigenze dell'utenza, il cui prezzo viene determinato di volta in volta al momento della richiesta dati.

Azioni sul documento

ultima modifica 01/07/2011 15:07